الصفحة الرئيسية
METAR-TAF:

METAR-TAF

مطار :

قاعدة بيروت الجوية

بيروت, لبنان

دائرة عرض: 33-49N, خط طول: 035-29E, ارتفاع: 29 متر

مراقبة الطقس الحالي

تاريخ ووقت الإصدار 51 دقيقة قبل الساعة 10:00UTC
ريح 4 عقدة من الغرب/الشمال الغربي, الاتجاه يتراوح بين الغرب/الجنوب الغربي و الشمال الغربي
درجة الحرارة 18°درجة مئوية
الرطوبة 49%
ضغط 1026 hPa
الرؤية 10 كم أو أكثر
غيوم قليلة على ارتفاع 3000 قدم

METAR: OLBA 141000Z 29004KT 250V310 9999 FEW030 18/07 Q1026 NOSIG

زمن: 12:51 (10:51 UTC)

توقعات

تاريخ ووقت الإصدار 6ساعات و 51 دقيقة قبل الساعة 04:00UTC
التوقعات صالحة من14 الساعة 06 UTC إلى 15 الساعة 12 UTC
ريح 6 عقدة من الجنوب
الرؤية 10 كم أو أكثر
غيوم متفرقة على ارتفاع 2600 قدم
أصبح
من 14 الساعة 15 UTC إلى 14 الساعة 18 UTC
ريح 10 عقدة من الشمال
غيوم قليلة على ارتفاع 2600 قدم
أصبح
من 15 الساعة 06 UTC إلى 15 الساعة 09 UTC
ريح 8 عقدة من الشمال
الرؤية 10 كم أو أكثر
الغيوم لا تقل 1500 م ولا وجود لمزنة ركامية السحاب الأسود

TAF: OLBA 140400Z 1406/1512 17006KT 9999 SCT026 BECMG 1415/1418 36010KT FEW026 BECMG 1506/1509 35008KT CAVOK

أرصاد الطقس والتوقعات من أكثر من 4000 مطار (تقارير الطقس للمطار METAR والتنبؤ بالطقس بالمطارTAF).

المحطات المتاحة هي النقط الصفراء والحمراء على الخريطة.

حرك المؤشر فوق النقطة لمعرفة اسم المحطة.

ثم انقر لمعرفة أرصاد وتوقعات الطقس.

لتغيير الخارطة: اضغط على الأزرار الخضراء مع رمز الصليب الأسود للتكبير. على الزر الأخضر مع شرطة للتصغير، أو على الأسهم الخضراء للخرائط المجاورة.


METAR-TAF: